Time;durP1;ratioP1;P1;durP2;ratioP2;P2;SDS_P1;SDS_P2;PMS_P1;PMS_P2;Temp;Humidity;BMP_temperature;BMP_pressure;BME280_temperature;BME280_humidity;BME280_pressure;Samples;Min_cycle;Max_cycle;Signal;HPM_P1;HPM_P2
2024/01/15 00:01:22;;;;;;;85.28;49.80;;;;;;;2.26;83.41;100300.91;4996129;28;20261;-79
2024/01/15 00:03:52;;;;;;;83.20;49.60;;;;;;;2.28;83.66;100306.91;5019887;28;20071;-79
2024/01/15 00:06:20;;;;;;;87.78;50.88;;;;;;;2.20;83.79;100292.56;5001623;28;20057;-81
2024/01/15 00:08:52;;;;;;;87.93;51.43;;;;;;;2.21;84.17;100282.00;5034681;28;20056;-82
2024/01/15 00:11:26;;;;;;;91.53;52.28;;;;;;;2.26;84.38;100287.81;5013267;28;20135;-81
2024/01/15 00:14:00;;;;;;;90.25;51.88;;;;;;;2.02;84.57;100244.75;5025781;28;20137;-81
2024/01/15 00:16:31;;;;;;;93.80;52.07;;;;;;;2.12;84.22;100261.59;5019536;28;20045;-83
2024/01/15 00:18:59;;;;;;;91.28;52.10;;;;;;;1.89;84.75;100211.44;5017293;28;20391;-81
2024/01/15 00:21:30;;;;;;;98.97;54.07;;;;;;;2.20;84.37;100256.72;5019795;28;20615;-81
2024/01/15 00:23:57;;;;;;;95.53;54.25;;;;;;;2.20;84.74;100241.03;5026152;28;20426;-81
2024/01/15 00:26:24;;;;;;;89.78;53.55;;;;;;;2.25;85.12;100243.38;5009187;28;20743;-82
2024/01/15 00:29:04;;;;;;;91.45;53.15;;;;;;;2.23;85.11;100219.88;5043408;28;20099;-80
2024/01/15 00:31:31;;;;;;;93.13;53.80;;;;;;;2.24;84.95;100220.75;5036084;28;20052;-81
2024/01/15 00:33:58;;;;;;;90.07;52.38;;;;;;;2.21;85.05;100200.81;5028420;28;20045;-81
2024/01/15 00:36:25;;;;;;;93.18;53.10;;;;;;;2.15;84.57;100193.31;5036930;28;20048;-82
2024/01/15 00:38:59;;;;;;;95.82;53.45;;;;;;;2.39;84.98;100208.47;5039266;28;20060;-80
2024/01/15 00:41:33;;;;;;;87.30;50.60;;;;;;;2.10;84.30;100161.31;5017779;28;20052;-81
2024/01/15 00:44:05;;;;;;;88.65;50.38;;;;;;;2.45;84.22;100205.47;5031045;28;20123;-84
2024/01/15 00:46:32;;;;;;;90.07;52.72;;;;;;;2.52;84.03;100201.53;5035191;28;20246;-78
2024/01/15 00:48:59;;;;;;;95.22;52.40;;;;;;;2.52;83.71;100196.31;5014518;28;20059;-80
2024/01/15 00:51:30;;;;;;;87.15;52.35;;;;;;;2.58;83.39;100201.19;5022189;28;20553;-81
2024/01/15 00:53:57;;;;;;;95.82;54.83;;;;;;;2.46;83.90;100194.06;5016831;28;20049;-78
2024/01/15 00:56:26;;;;;;;85.40;51.58;;;;;;;2.48;83.23;100184.34;5020598;28;20053;-80
2024/01/15 00:58:52;;;;;;;96.82;55.25;;;;;;;2.62;83.31;100207.91;5015064;28;20333;-80
2024/01/15 01:01:24;;;;;;;95.90;52.55;;;;;;;2.37;83.31;100158.78;5013054;28;20057;-81
2024/01/15 01:03:51;;;;;;;83.00;51.05;;;;;;;2.57;82.78;100181.13;5020847;28;20511;-79
2024/01/15 01:06:20;;;;;;;93.88;52.65;;;;;;;2.32;83.42;100135.50;5018454;28;20179;-82
2024/01/15 01:08:47;;;;;;;99.03;54.53;;;;;;;2.49;83.02;100157.19;4987275;28;20041;-81
2024/01/15 01:11:15;;;;;;;98.60;54.83;;;;;;;2.66;83.53;100191.03;5020025;28;20056;-81
2024/01/15 01:13:43;;;;;;;87.10;52.63;;;;;;;2.60;83.20;100180.97;5012296;28;20263;-80
2024/01/15 01:16:11;;;;;;;90.45;54.50;;;;;;;2.52;83.65;100167.47;5011586;28;20053;-81
2024/01/15 01:18:38;;;;;;;97.13;54.22;;;;;;;2.72;83.04;100181.97;5028154;28;20056;-78
2024/01/15 01:21:11;;;;;;;96.03;55.67;;;;;;;2.66;82.52;100169.25;5004328;28;20083;-80
2024/01/15 01:23:47;;;;;;;99.82;55.45;;;;;;;2.73;82.63;100175.78;5014368;28;20053;-81
2024/01/15 01:26:17;;;;;;;90.15;54.33;;;;;;;2.62;82.59;100152.00;5038952;28;20040;-79
2024/01/15 01:28:45;;;;;;;99.70;54.83;;;;;;;2.68;82.89;100162.97;5032144;28;20076;-83
2024/01/15 01:31:12;;;;;;;97.95;55.63;;;;;;;2.58;82.61;100146.13;5044624;28;20566;-82
2024/01/15 01:33:42;;;;;;;99.30;55.38;;;;;;;2.68;83.04;100168.19;5032026;28;20481;-79
2024/01/15 01:36:09;;;;;;;97.28;55.05;;;;;;;2.66;82.88;100167.44;5035504;28;20543;-79
2024/01/15 01:38:37;;;;;;;90.03;52.13;;;;;;;2.53;82.66;100129.88;5027456;28;20072;-81
2024/01/15 01:41:07;;;;;;;91.43;52.58;;;;;;;2.60;82.84;100143.41;5022361;28;20076;-82
2024/01/15 01:43:33;;;;;;;96.75;53.45;;;;;;;2.79;82.53;100170.13;5017276;28;20226;-81
2024/01/15 01:46:02;;;;;;;97.80;56.05;;;;;;;2.70;82.26;100155.00;5020883;28;20126;-80
2024/01/15 01:48:30;;;;;;;93.38;53.65;;;;;;;2.46;82.58;100115.47;5030069;28;20136;-81
2024/01/15 01:51:01;;;;;;;91.95;54.80;;;;;;;2.70;82.01;100161.09;5017544;28;20051;-81
2024/01/15 01:53:33;;;;;;;103.40;57.03;;;;;;;2.61;82.29;100143.31;5020876;28;20303;-81
2024/01/15 01:56:00;;;;;;;99.30;57.63;;;;;;;2.44;81.82;100101.63;5028865;28;20451;-81
2024/01/15 01:58:31;;;;;;;95.45;55.15;;;;;;;2.84;82.08;100160.22;5035369;28;20139;-81
2024/01/15 02:00:59;;;;;;;97.32;56.97;;;;;;;2.73;82.45;100154.81;5046347;28;20098;-80
2024/01/15 02:03:31;;;;;;;111.97;57.97;;;;;;;2.80;82.36;100155.28;5017133;28;20053;-82
2024/01/15 02:05:59;;;;;;;99.22;59.28;;;;;;;2.61;82.26;100130.22;5013845;28;20295;-82
2024/01/15 02:08:27;;;;;;;107.13;58.03;;;;;;;2.56;82.69;100116.56;5014616;28;20144;-81
2024/01/15 02:10:54;;;;;;;106.00;59.03;;;;;;;2.60;82.37;100123.31;5020714;28;20183;-80
2024/01/15 02:13:21;;;;;;;104.40;60.10;;;;;;;2.87;82.36;100162.66;5027090;28;20067;-81
2024/01/15 02:15:47;;;;;;;100.35;58.97;;;;;;;2.64;82.44;100124.78;5029316;28;20059;-80
2024/01/15 02:18:14;;;;;;;101.32;58.22;;;;;;;2.63;82.88;100138.81;5028961;28;20226;-78
2024/01/15 02:20:41;;;;;;;105.95;58.65;;;;;;;1.91;81.98;100001.91;5026812;28;20052;-79
2024/01/15 02:23:15;;;;;;;103.20;59.92;;;;;;;2.48;81.98;100092.63;5020546;28;20132;-81
2024/01/15 02:25:47;;;;;;;108.32;60.58;;;;;;;2.04;82.28;100025.53;5047215;28;20090;-81
2024/01/15 02:28:19;;;;;;;103.95;59.78;;;;;;;2.90;82.58;100159.81;5048306;28;20126;-80
2024/01/15 02:30:50;;;;;;;112.40;60.95;;;;;;;2.77;82.22;100136.16;5041601;28;20102;-82
2024/01/15 02:33:22;;;;;;;118.30;63.08;;;;;;;2.96;81.69;100155.94;5041158;28;20084;-81
2024/01/15 02:35:51;;;;;;;110.47;62.15;;;;;;;2.86;80.85;100132.09;5044289;28;20083;-80
2024/01/15 02:38:18;;;;;;;123.63;63.63;;;;;;;2.79;81.56;100122.94;5029890;28;20049;-79
2024/01/15 02:40:45;;;;;;;110.75;64.65;;;;;;;2.89;81.44;100137.16;5023127;28;20052;-80
2024/01/15 02:43:13;;;;;;;113.38;64.15;;;;;;;2.26;82.07;100044.22;5020995;28;20311;-81
2024/01/15 02:45:40;;;;;;;119.53;62.00;;;;;;;2.71;82.65;100109.50;5028153;28;20044;-79
2024/01/15 02:48:07;;;;;;;116.50;67.13;;;;;;;2.67;81.92;100100.16;5040301;28;20144;-80
2024/01/15 02:50:37;;;;;;;126.93;64.70;;;;;;;2.82;82.16;100119.31;5026926;28;20147;-80
2024/01/15 02:53:05;;;;;;;117.82;63.58;;;;;;;2.78;82.61;100122.13;5026808;28;20044;-79
2024/01/15 02:55:31;;;;;;;114.70;62.97;;;;;;;2.73;82.34;100099.75;5037145;28;20822;-80
2024/01/15 02:57:59;;;;;;;118.45;64.40;;;;;;;2.87;82.81;100120.69;5036756;28;20076;-80
2024/01/15 03:00:26;;;;;;;113.20;64.70;;;;;;;2.93;82.25;100120.28;5048664;28;20053;-79
2024/01/15 03:02:54;;;;;;;114.38;64.30;;;;;;;2.90;81.90;100103.91;5033601;28;20402;-81
2024/01/15 03:05:21;;;;;;;115.82;65.82;;;;;;;2.77;82.36;100091.59;5042446;28;20071;-81
2024/01/15 03:07:48;;;;;;;113.53;64.60;;;;;;;2.72;82.43;100075.34;5036424;28;20482;-80
2024/01/15 03:10:15;;;;;;;115.43;62.30;;;;;;;3.03;82.04;100099.53;5028365;28;20041;-80
2024/01/15 03:12:42;;;;;;;113.15;65.25;;;;;;;2.68;81.87;100036.31;5023225;28;20135;-81
2024/01/15 03:15:09;;;;;;;114.63;63.47;;;;;;;2.96;81.32;100069.41;5031552;28;20072;-80
2024/01/15 03:17:35;;;;;;;114.10;61.67;;;;;;;3.11;81.83;100086.78;5021540;28;20055;-81
2024/01/15 03:20:03;;;;;;;112.20;63.35;;;;;;;3.02;81.19;100055.91;5014285;28;20053;-81
2024/01/15 03:22:30;;;;;;;100.88;60.55;;;;;;;3.06;80.98;100044.28;5024936;28;20049;-81
2024/01/15 03:24:57;;;;;;;107.55;62.53;;;;;;;3.15;81.39;100056.78;5036856;28;20084;-81
2024/01/15 03:27:30;;;;;;;114.38;61.92;;;;;;;3.12;80.70;100046.50;5040260;28;20063;-80
2024/01/15 03:29:57;;;;;;;113.93;65.32;;;;;;;3.27;80.61;100064.78;5018012;28;20060;-81
2024/01/15 03:32:24;;;;;;;105.95;60.05;;;;;;;3.28;81.13;100059.44;5023687;28;20041;-80
2024/01/15 03:34:52;;;;;;;110.43;60.17;;;;;;;3.24;80.68;100044.84;5048158;28;20334;-80
2024/01/15 03:37:20;;;;;;;111.70;61.95;;;;;;;3.35;80.28;100046.72;5039578;28;20595;-81
2024/01/15 03:39:47;;;;;;;105.22;61.70;;;;;;;3.26;80.54;100042.94;5026824;28;20064;-78
2024/01/15 03:42:15;;;;;;;108.07;60.50;;;;;;;3.07;80.11;100018.91;5037954;28;20057;-82
2024/01/15 03:44:43;;;;;;;109.07;61.22;;;;;;;3.20;80.78;100033.72;5018598;28;20277;-81
2024/01/15 03:47:10;;;;;;;108.97;61.85;;;;;;;3.12;80.39;100008.94;5028780;28;20083;-81
2024/01/15 03:49:36;;;;;;;106.90;61.78;;;;;;;3.21;80.78;100017.03;5019969;28;20142;-80
2024/01/15 03:52:04;;;;;;;110.13;61.20;;;;;;;2.62;80.65;99913.53;5023244;28;20053;-78
2024/01/15 03:54:33;;;;;;;102.85;61.83;;;;;;;2.83;80.79;99940.94;4998940;28;20045;-81
2024/01/15 03:57:04;;;;;;;103.20;60.88;;;;;;;3.18;80.70;99983.13;4997722;28;20064;-80
2024/01/15 03:59:41;;;;;;;110.65;61.17;;;;;;;3.17;80.94;99984.06;4994336;28;20140;-80
2024/01/15 04:02:07;;;;;;;108.43;63.58;;;;;;;3.26;81.91;99997.53;5013927;28;20544;-80
2024/01/15 04:04:34;;;;;;;104.20;59.67;;;;;;;2.72;81.40;99906.75;5011154;28;20053;-80
2024/01/15 04:07:01;;;;;;;108.93;64.05;;;;;;;3.31;80.89;99979.69;5022808;28;20049;-81
2024/01/15 04:09:28;;;;;;;103.65;59.50;;;;;;;3.31;81.75;99971.81;5015548;28;20140;-81
2024/01/15 04:11:55;;;;;;;119.53;64.25;;;;;;;3.24;81.02;99950.38;5013443;28;20064;-81
2024/01/15 04:14:22;;;;;;;111.72;62.00;;;;;;;3.38;81.01;99967.81;5017404;28;20106;-81
2024/01/15 04:16:48;;;;;;;107.28;62.72;;;;;;;3.35;80.52;99955.75;5022861;28;20049;-83
2024/01/15 04:19:15;;;;;;;113.43;60.00;;;;;;;3.42;80.42;99958.75;5024388;28;20325;-81
2024/01/15 04:21:42;;;;;;;99.30;59.45;;;;;;;3.60;80.57;99968.00;5029590;28;20399;-80
2024/01/15 04:24:09;;;;;;;112.22;63.00;;;;;;;3.63;80.42;99977.44;5020085;28;20269;-82
2024/01/15 04:26:36;;;;;;;106.80;62.33;;;;;;;3.50;80.76;99945.97;5028601;28;20040;-79
2024/01/15 04:29:02;;;;;;;101.80;61.67;;;;;;;3.63;80.93;99965.16;5043590;28;20434;-82
2024/01/15 04:31:36;;;;;;;112.03;61.22;;;;;;;3.56;79.96;99949.94;5048703;28;20532;-80
2024/01/15 04:34:09;;;;;;;111.60;62.35;;;;;;;3.54;80.34;99957.06;5009315;28;20040;-80
2024/01/15 04:36:41;;;;;;;117.25;62.45;;;;;;;3.64;80.23;99979.97;5048946;28;20063;-81
2024/01/15 04:39:11;;;;;;;120.53;64.40;;;;;;;3.51;80.21;99955.50;5009500;28;20865;-81
2024/01/15 04:41:38;;;;;;;109.60;62.50;;;;;;;3.57;80.30;99962.97;4979041;28;20048;-81
2024/01/15 04:44:05;;;;;;;118.50;64.63;;;;;;;3.59;80.16;99966.31;4977119;28;20537;-82
2024/01/15 04:46:31;;;;;;;109.80;61.83;;;;;;;3.42;79.82;99936.00;4979877;28;20252;-80
2024/01/15 04:49:02;;;;;;;110.57;63.38;;;;;;;3.63;79.40;99967.78;4967570;28;20331;-82
2024/01/15 04:51:36;;;;;;;115.50;65.32;;;;;;;3.55;79.74;99937.78;4983716;28;20048;-81
2024/01/15 04:54:04;;;;;;;107.15;63.58;;;;;;;3.44;79.78;99917.53;5016244;28;20565;-82
2024/01/15 04:56:30;;;;;;;119.15;65.43;;;;;;;3.70;79.73;99962.09;5044346;28;20049;-78
2024/01/15 04:59:02;;;;;;;109.30;62.97;;;;;;;3.70;79.50;99962.09;5005852;28;20078;-81
2024/01/15 05:01:35;;;;;;;119.88;65.78;;;;;;;3.67;79.27;99951.84;5026590;28;20048;-81
2024/01/15 05:04:04;;;;;;;115.20;64.45;;;;;;;3.21;79.63;99887.66;5046895;28;20056;-81
2024/01/15 05:06:33;;;;;;;117.47;66.40;;;;;;;3.63;79.89;99961.69;5045206;28;20060;-83
2024/01/15 05:09:00;;;;;;;116.13;65.25;;;;;;;3.38;79.68;99907.47;5027806;28;20330;-79
2024/01/15 05:11:32;;;;;;;117.97;63.40;;;;;;;3.62;79.87;99947.72;5020098;28;20057;-81
2024/01/15 05:13:59;;;;;;;108.87;61.37;;;;;;;3.67;78.91;99933.44;5038153;28;20057;-81
2024/01/15 05:16:26;;;;;;;110.18;62.70;;;;;;;3.59;79.58;99921.72;5006400;28;20666;-81
2024/01/15 05:18:53;;;;;;;115.28;64.50;;;;;;;3.62;79.65;99934.59;5020457;28;20207;-80
2024/01/15 05:21:20;;;;;;;113.32;66.13;;;;;;;3.39;79.47;99893.38;5022263;28;20127;-82
2024/01/15 05:23:46;;;;;;;116.90;64.07;;;;;;;3.39;79.75;99896.00;5010521;28;20532;-81
2024/01/15 05:26:13;;;;;;;121.57;64.88;;;;;;;3.21;80.04;99878.00;5027744;28;20100;-81
2024/01/15 05:28:48;;;;;;;114.25;66.13;;;;;;;3.12;80.44;99860.28;4988354;28;20098;-81
2024/01/15 05:31:17;;;;;;;118.32;64.47;;;;;;;3.51;80.29;99910.06;5009264;28;20106;-80
2024/01/15 05:33:44;;;;;;;109.18;63.33;;;;;;;3.16;80.42;99874.84;5040165;28;20176;-81
2024/01/15 05:36:15;;;;;;;124.95;69.05;;;;;;;3.29;81.28;99889.75;5041437;28;20436;-82
2024/01/15 05:38:42;;;;;;;122.75;66.72;;;;;;;3.14;81.52;99876.75;5031153;28;20051;-80
2024/01/15 05:41:13;;;;;;;116.05;66.13;;;;;;;3.12;81.66;99878.63;5021883;28;20112;-81
2024/01/15 05:43:41;;;;;;;125.38;64.95;;;;;;;3.45;81.08;99923.59;5021986;28;20053;-81
2024/01/15 05:46:10;;;;;;;114.18;63.90;;;;;;;3.12;81.38;99862.06;5018722;28;20049;-82
2024/01/15 05:48:42;;;;;;;115.22;64.68;;;;;;;3.47;80.74;99917.31;4991987;28;20115;-81
2024/01/15 05:51:10;;;;;;;115.20;63.30;;;;;;;3.53;80.60;99940.50;4993539;28;20434;-81
2024/01/15 05:53:40;;;;;;;125.75;67.30;;;;;;;3.59;80.97;99947.09;5004492;28;20116;-82
2024/01/15 05:56:06;;;;;;;120.15;67.22;;;;;;;3.51;80.44;99936.31;5021739;28;20045;-81
2024/01/15 05:58:37;;;;;;;124.93;66.30;;;;;;;3.63;80.66;99956.44;5025129;28;20430;-82
2024/01/15 06:01:10;;;;;;;117.20;66.88;;;;;;;3.43;79.88;99936.84;5049211;28;20135;-82
2024/01/15 06:03:37;;;;;;;115.93;65.50;;;;;;;3.55;79.82;99954.34;5040746;28;20088;-81
2024/01/15 06:06:08;;;;;;;111.32;63.53;;;;;;;3.28;79.86;99914.31;5050616;28;20481;-82
2024/01/15 06:08:35;;;;;;;120.32;66.13;;;;;;;3.55;79.79;99961.41;5018588;28;20060;-81
2024/01/15 06:11:03;;;;;;;123.40;64.88;;;;;;;2.90;80.34;99865.34;5021698;28;20041;-81
2024/01/15 06:13:29;;;;;;;112.30;64.55;;;;;;;3.46;80.79;99943.66;5028272;28;20041;-80
2024/01/15 06:15:56;;;;;;;121.60;65.68;;;;;;;3.12;81.00;99899.63;5020610;28;20478;-80
2024/01/15 06:18:23;;;;;;;115.63;62.28;;;;;;;3.17;81.59;99918.50;5027904;28;20052;-81
2024/01/15 06:20:52;;;;;;;108.93;61.67;;;;;;;3.42;81.61;99953.50;4995082;28;20057;-82
2024/01/15 06:23:22;;;;;;;107.65;60.78;;;;;;;3.52;82.07;99954.56;5020538;28;20132;-82
2024/01/15 06:25:49;;;;;;;110.50;61.28;;;;;;;3.07;82.15;99896.47;5023458;28;20122;-81
2024/01/15 06:28:15;;;;;;;106.68;60.53;;;;;;;3.61;80.96;99960.94;5022712;28;20389;-82
2024/01/15 06:30:42;;;;;;;110.72;61.13;;;;;;;3.63;80.47;99952.03;5020168;28;20354;-83
2024/01/15 06:33:09;;;;;;;111.20;60.00;;;;;;;3.67;80.47;99941.31;5022847;28;20071;-80
2024/01/15 06:35:36;;;;;;;118.80;62.75;;;;;;;3.71;80.16;99930.47;5023035;28;20522;-81
2024/01/15 06:38:06;;;;;;;110.70;61.85;;;;;;;3.42;80.54;99894.03;5025862;28;20105;-81
2024/01/15 06:40:32;;;;;;;119.05;64.47;;;;;;;3.63;80.14;99941.53;5022785;28;20053;-81
2024/01/15 06:43:04;;;;;;;116.00;60.00;;;;;;;3.59;79.83;99913.84;5023905;28;20110;-81
2024/01/15 06:45:31;;;;;;;113.38;62.33;;;;;;;3.79;79.31;99935.19;5026266;28;20135;-83
2024/01/15 06:47:57;;;;;;;111.75;59.95;;;;;;;3.72;79.09;99939.22;5018928;28;20469;-82
2024/01/15 06:50:24;;;;;;;108.47;61.38;;;;;;;3.08;79.50;99835.19;5026557;28;20081;-81
2024/01/15 06:52:54;;;;;;;117.20;63.95;;;;;;;3.55;80.31;99928.13;5026409;28;20487;-81
2024/01/15 06:55:20;;;;;;;115.30;67.05;;;;;;;3.54;79.47;99918.53;5021578;28;20744;-80
2024/01/15 06:57:47;;;;;;;122.10;65.05;;;;;;;3.59;80.18;99929.59;5026783;28;20119;-81
2024/01/15 07:00:19;;;;;;;126.57;67.47;;;;;;;3.58;80.46;99932.31;5015152;28;20056;-80
2024/01/15 07:02:46;;;;;;;117.30;66.22;;;;;;;3.67;79.82;99921.16;5026477;28;20057;-81
2024/01/15 07:05:13;;;;;;;121.50;69.32;;;;;;;3.40;79.58;99882.78;5020607;28;20478;-82
2024/01/15 07:07:42;;;;;;;125.18;67.30;;;;;;;3.62;79.68;99925.91;5020877;28;20549;-79
2024/01/15 07:10:13;;;;;;;123.65;67.25;;;;;;;3.47;79.83;99919.94;5022089;28;20053;-82
2024/01/15 07:12:44;;;;;;;128.02;67.75;;;;;;;3.61;80.49;99937.31;5023521;28;20045;-82
2024/01/15 07:15:11;;;;;;;122.70;66.38;;;;;;;3.57;80.21;99931.47;5022047;28;20187;-81
2024/01/15 07:17:39;;;;;;;127.53;69.50;;;;;;;3.64;80.47;99945.84;5040163;28;20075;-81
2024/01/15 07:20:10;;;;;;;131.13;68.75;;;;;;;3.33;80.13;99878.09;5035575;28;20056;-82
2024/01/15 07:22:41;;;;;;;116.63;67.30;;;;;;;3.66;80.20;99942.25;5027638;28;20049;-83
2024/01/15 07:25:09;;;;;;;132.90;70.40;;;;;;;3.61;80.39;99943.41;5038075;28;20764;-80
2024/01/15 07:27:39;;;;;;;123.32;70.95;;;;;;;3.70;80.11;99927.97;5025469;28;20049;-82
2024/01/15 07:30:15;;;;;;;140.90;72.20;;;;;;;3.53;80.10;99913.41;5000301;28;20045;-83
2024/01/15 07:32:43;;;;;;;124.55;70.38;;;;;;;3.69;80.12;99945.53;5027717;28;20108;-81
2024/01/15 07:35:10;;;;;;;126.90;68.75;;;;;;;3.78;79.87;99939.59;5034355;28;20104;-81
2024/01/15 07:37:37;;;;;;;121.93;67.75;;;;;;;3.81;79.91;99933.28;5022874;28;20053;-81
2024/01/15 07:40:05;;;;;;;130.50;68.88;;;;;;;3.67;80.31;99909.81;5028934;28;20131;-81
2024/01/15 07:42:32;;;;;;;118.18;63.85;;;;;;;3.50;80.40;99883.00;5022412;28;20096;-79
2024/01/15 07:45:03;;;;;;;114.90;64.25;;;;;;;3.88;80.03;99933.69;5019748;28;20483;-81
2024/01/15 07:47:40;;;;;;;109.45;59.47;;;;;;;3.98;79.47;99951.31;5034966;28;20497;-82
2024/01/15 07:50:07;;;;;;;104.28;59.30;;;;;;;3.99;79.79;99944.28;5049131;28;20045;-80
2024/01/15 07:52:48;;;;;;;112.60;62.88;;;;;;;3.90;79.29;99910.78;5048694;28;20053;-81
2024/01/15 07:55:15;;;;;;;109.45;60.10;;;;;;;3.91;78.96;99915.94;5011975;28;20052;-82
2024/01/15 07:57:44;;;;;;;109.65;58.72;;;;;;;4.01;79.35;99935.34;5010482;28;20053;-81
2024/01/15 08:00:21;;;;;;;101.35;58.40;;;;;;;4.04;79.37;99935.09;5022484;28;20471;-81
2024/01/15 08:02:49;;;;;;;113.00;61.85;;;;;;;3.94;78.79;99897.34;5023268;28;20110;-81
2024/01/15 08:05:16;;;;;;;114.20;64.55;;;;;;;4.14;79.01;99929.19;5026799;28;20080;-78
2024/01/15 08:07:43;;;;;;;113.63;61.85;;;;;;;4.22;78.73;99943.47;5024978;28;20045;-79
2024/01/15 08:10:13;;;;;;;116.43;63.13;;;;;;;4.18;78.26;99947.25;5019617;28;20045;-80
2024/01/15 08:12:40;;;;;;;113.00;66.40;;;;;;;4.25;78.22;99964.25;5028508;28;20298;-80
2024/01/15 08:15:07;;;;;;;127.40;66.70;;;;;;;4.35;78.15;99967.03;5028719;28;20041;-81
2024/01/15 08:17:34;;;;;;;121.57;64.53;;;;;;;4.28;78.01;99957.94;5024940;28;20136;-81
2024/01/15 08:20:01;;;;;;;120.55;64.15;;;;;;;4.30;78.20;99961.28;5022749;28;20053;-81
2024/01/15 08:22:30;;;;;;;134.18;68.63;;;;;;;4.16;78.11;99922.88;5023855;28;20082;-83
2024/01/15 08:24:57;;;;;;;129.57;69.18;;;;;;;4.01;77.93;99902.97;5022184;28;20053;-82
2024/01/15 08:27:24;;;;;;;120.88;66.90;;;;;;;4.22;78.11;99953.97;5029432;28;20328;-80
2024/01/15 08:29:51;;;;;;;125.40;67.45;;;;;;;4.18;78.07;99930.66;5018154;28;20475;-83
2024/01/15 08:32:18;;;;;;;117.55;65.38;;;;;;;4.32;78.37;99942.75;5023469;28;20037;-77
2024/01/15 08:34:47;;;;;;;128.45;69.15;;;;;;;4.23;78.39;99936.41;5023556;28;20818;-80
2024/01/15 08:37:14;;;;;;;134.57;70.53;;;;;;;4.09;78.01;99898.00;5028829;28;20460;-79
2024/01/15 08:39:44;;;;;;;127.05;67.85;;;;;;;4.33;78.08;99928.69;5041364;28;20552;-80
2024/01/15 08:42:11;;;;;;;137.23;71.35;;;;;;;4.20;78.56;99921.72;5026206;28;20091;-80
2024/01/15 08:44:43;;;;;;;117.78;65.70;;;;;;;4.42;78.23;99949.88;5034100;28;20142;-81
2024/01/15 08:47:12;;;;;;;;;;;;;;;4.20;78.13;99899.81;5019344;28;20048;-82
2024/01/15 08:49:40;;;;;;;125.80;67.28;;;;;;;4.50;78.37;99930.91;5022647;28;19925;-81
2024/01/15 08:52:07;;;;;;;115.28;64.35;;;;;;;4.65;77.59;99935.00;5016207;28;20057;-82
2024/01/15 08:54:34;;;;;;;108.72;63.47;;;;;;;4.67;77.09;99916.50;5011006;28;20048;-81
2024/01/15 08:57:11;;;;;;;115.18;63.03;;;;;;;4.76;77.43;99931.59;5020518;28;20251;-82
2024/01/15 08:59:46;;;;;;;119.25;65.18;;;;;;;4.86;76.59;99934.38;4986445;28;20248;-80
2024/01/15 09:02:13;;;;;;;117.97;62.83;;;;;;;4.75;76.80;99934.31;5017430;28;20545;-80
2024/01/15 09:04:41;;;;;;;118.30;62.72;;;;;;;4.67;77.39;99932.28;5014674;28;20057;-81
2024/01/15 09:07:08;;;;;;;118.80;63.28;;;;;;;4.22;77.53;99848.00;5016158;28;20468;-82
2024/01/15 09:09:37;;;;;;;116.78;64.35;;;;;;;4.72;77.44;99930.13;5020753;28;20052;-82
2024/01/15 09:12:05;;;;;;;119.05;65.47;;;;;;;4.74;77.53;99933.50;5028619;28;20316;-81
2024/01/15 09:14:34;;;;;;;126.55;66.40;;;;;;;4.57;77.45;99890.06;5025036;28;20049;-80
2024/01/15 09:17:06;;;;;;;136.23;71.10;;;;;;;4.68;76.85;99902.38;5026509;28;20056;-81
2024/01/15 09:19:33;;;;;;;133.50;71.97;;;;;;;5.00;76.90;99949.94;5036302;28;20053;-80
2024/01/15 09:22:02;;;;;;;141.05;73.45;;;;;;;4.98;76.69;99929.97;5024152;28;20049;-82
2024/01/15 09:24:31;;;;;;;143.77;75.18;;;;;;;5.09;76.64;99943.94;5037559;28;20068;-79
2024/01/15 09:27:02;;;;;;;142.25;75.65;;;;;;;5.19;76.06;99949.34;5034156;28;20079;-81
2024/01/15 09:29:31;;;;;;;;;;;;;;;5.22;75.72;99943.00;5031941;28;20072;-80
2024/01/15 09:31:58;;;;;;;141.00;76.18;;;;;;;5.25;75.60;99954.16;5033599;28;19935;-80
2024/01/15 09:34:25;;;;;;;137.48;75.10;;;;;;;5.00;76.41;99922.78;5021653;28;20483;-81
2024/01/15 09:36:53;;;;;;;149.35;77.32;;;;;;;5.18;76.75;99950.31;5030723;28;20053;-82
2024/01/15 09:39:23;;;;;;;151.35;74.72;;;;;;;5.04;75.69;99913.69;5016137;28;20053;-81
2024/01/15 09:41:50;;;;;;;144.88;73.72;;;;;;;5.23;75.96;99950.78;5014646;28;20048;-81
2024/01/15 09:44:17;;;;;;;141.13;76.65;;;;;;;4.72;76.37;99856.50;5032348;28;20131;-81
2024/01/15 09:46:44;;;;;;;144.85;78.03;;;;;;;4.92;77.03;99890.00;5013827;28;20063;-81
2024/01/15 09:49:12;;;;;;;147.43;78.45;;;;;;;5.38;76.36;99937.41;5024308;28;20052;-80
2024/01/15 09:51:40;;;;;;;145.48;78.15;;;;;;;5.29;76.75;99912.63;5022800;28;20059;-80
2024/01/15 09:54:10;;;;;;;134.38;72.97;;;;;;;5.29;76.73;99897.69;5022832;28;20367;-81
2024/01/15 09:56:37;;;;;;;143.35;73.15;;;;;;;5.35;76.75;99915.63;5028278;28;20359;-81
2024/01/15 09:59:07;;;;;;;137.32;73.93;;;;;;;5.43;76.49;99920.28;5028705;28;20299;-82
2024/01/15 10:01:39;;;;;;;141.65;75.07;;;;;;;5.35;76.40;99905.09;5007575;28;20107;-81
2024/01/15 10:04:14;;;;;;;142.07;74.57;;;;;;;5.55;75.75;99926.38;4986334;28;20061;-83
2024/01/15 10:06:45;;;;;;;137.05;76.15;;;;;;;5.60;75.71;99911.06;4999019;28;20147;-82
2024/01/15 10:09:16;;;;;;;138.23;75.03;;;;;;;5.28;76.24;99864.44;5017556;28;20122;-81
2024/01/15 10:11:44;;;;;;;148.02;78.22;;;;;;;5.59;76.20;99890.97;5026258;28;20556;-81
2024/01/15 10:14:12;;;;;;;143.73;78.63;;;;;;;5.87;75.44;99888.75;5017196;28;20049;-82
2024/01/15 10:16:40;;;;;;;146.82;78.97;;;;;;;5.94;74.87;99895.22;5021445;28;20554;-81
2024/01/15 10:19:09;;;;;;;153.18;80.85;;;;;;;5.91;75.45;99908.63;5017483;28;20133;-81
2024/01/15 10:21:37;;;;;;;143.02;77.13;;;;;;;5.98;75.13;99907.22;4988708;28;20138;-82
2024/01/15 10:24:07;;;;;;;160.95;81.75;;;;;;;5.86;75.59;99889.72;5006708;28;20052;-82
2024/01/15 10:26:37;;;;;;;143.43;74.97;;;;;;;5.98;75.99;99900.13;5023500;28;20107;-81
2024/01/15 10:29:04;;;;;;;163.30;84.05;;;;;;;6.13;75.56;99895.41;5013741;28;20056;-82
2024/01/15 10:31:31;;;;;;;154.95;79.25;;;;;;;6.16;75.48;99879.34;5022570;28;20890;-82
2024/01/15 10:34:12;;;;;;;147.45;79.57;;;;;;;6.18;75.58;99885.31;5024303;28;20377;-81
2024/01/15 10:36:45;;;;;;;150.90;80.00;;;;;;;6.15;75.78;99872.41;4990554;28;20163;-82
2024/01/15 10:39:19;;;;;;;158.27;81.93;;;;;;;6.27;76.58;99877.66;4973033;28;20483;-82
2024/01/15 10:41:51;;;;;;;151.57;79.85;;;;;;;6.26;76.71;99845.16;4998024;28;20550;-81
2024/01/15 10:44:19;;;;;;;152.15;79.60;;;;;;;6.39;75.81;99858.16;4993500;28;20398;-81
2024/01/15 10:46:47;;;;;;;146.85;78.13;;;;;;;6.52;75.85;99861.44;5018250;28;20068;-79
2024/01/15 10:49:14;;;;;;;149.48;78.80;;;;;;;6.60;75.15;99837.06;5023726;28;20060;-81
2024/01/15 10:51:42;;;;;;;156.60;81.75;;;;;;;6.47;75.34;99815.34;5030971;28;20279;-81
2024/01/15 10:54:11;;;;;;;155.98;82.88;;;;;;;6.60;75.16;99843.19;5026978;28;20049;-80
2024/01/15 10:56:39;;;;;;;146.82;78.43;;;;;;;6.41;76.23;99821.97;5024387;28;20045;-81
2024/01/15 10:59:07;;;;;;;155.60;81.45;;;;;;;6.41;75.81;99803.53;5022423;28;20048;-80
2024/01/15 11:01:35;;;;;;;152.95;77.57;;;;;;;6.72;75.21;99851.84;5017879;28;20069;-81
2024/01/15 11:04:02;;;;;;;148.43;79.10;;;;;;;6.61;75.09;99844.03;5047194;28;20056;-82
2024/01/15 11:06:45;;;;;;;150.75;73.93;;;;;;;6.77;74.50;99854.97;5038337;28;20045;-80
2024/01/15 11:09:15;;;;;;;154.18;75.80;;;;;;;6.46;74.74;99819.78;5047416;28;20044;-81
2024/01/15 11:11:45;;;;;;;147.77;76.55;;;;;;;6.64;74.55;99849.03;5027281;28;20390;-81
2024/01/15 11:14:36;;;;;;;144.63;72.85;;;;;;;6.69;74.42;99846.00;4987907;28;20136;-80
2024/01/15 11:17:06;;;;;;;146.80;73.97;;;;;;;6.46;75.03;99803.97;4984387;28;20134;-83
2024/01/15 11:19:44;;;;;;;143.90;71.38;;;;;;;6.40;74.18;99778.09;4998504;28;20257;-83
2024/01/15 11:22:29;;;;;;;157.27;73.35;;;;;;;6.33;74.72;99761.13;5008795;28;20090;-83
2024/01/15 11:25:23;;;;;;;148.45;76.65;;;;;;;6.55;74.44;99792.66;4985944;28;20055;-82